Time;durP1;ratioP1;P1;durP2;ratioP2;P2;SDS_P1;SDS_P2;PMS_P1;PMS_P2;Temp;Humidity;BMP_temperature;BMP_pressure;BME280_temperature;BME280_humidity;BME280_pressure;Samples;Min_cycle;Max_cycle;Signal;HPM_P1;HPM_P2
2022/03/02 00:00:26;;;;;;;11.27;6.27;;;;;;;0.82;77.61;100475.11;1740359;81;20918;-54
2022/03/02 00:02:52;;;;;;;12.87;7.07;;;;;;;0.83;77.58;100474.23;1740713;81;21048;-54
2022/03/02 00:05:19;;;;;;;12.97;7.03;;;;;;;0.86;77.56;100477.31;1740681;81;21472;-53
2022/03/02 00:07:45;;;;;;;11.33;7.43;;;;;;;0.86;77.55;100469.36;1740444;81;20970;-53
2022/03/02 00:10:13;;;;;;;11.63;6.17;;;;;;;0.85;77.58;100467.63;1740932;81;20920;-56
2022/03/02 00:12:39;;;;;;;19.60;8.63;;;;;;;0.81;77.74;100464.50;1741515;81;20918;-55
2022/03/02 00:15:07;;;;;;;18.67;7.93;;;;;;;0.75;77.80;100457.44;1739380;80;21095;-55
2022/03/02 00:17:34;;;;;;;17.30;8.90;;;;;;;0.74;77.93;100458.31;1740714;81;20940;-56
2022/03/02 00:20:00;;;;;;;12.27;8.17;;;;;;;0.72;78.12;100455.66;1739878;81;21367;-53
2022/03/02 00:22:26;;;;;;;15.07;7.83;;;;;;;0.73;78.17;100453.45;1742558;81;20970;-54
2022/03/02 00:24:52;;;;;;;14.77;7.77;;;;;;;0.78;78.25;100446.82;1737682;81;21486;-55
2022/03/02 00:27:19;;;;;;;16.83;7.80;;;;;;;0.80;78.21;100440.20;1736096;81;21547;-54
2022/03/02 00:29:46;;;;;;;14.73;8.17;;;;;;;0.82;78.23;100433.15;1740716;81;21406;-56
2022/03/02 00:32:13;;;;;;;15.47;7.67;;;;;;;0.83;78.29;100434.48;1740286;81;21075;-53
2022/03/02 00:34:39;;;;;;;12.97;7.10;;;;;;;0.87;78.28;100433.59;1739959;81;21516;-52
2022/03/02 00:37:06;;;;;;;17.97;8.50;;;;;;;0.90;78.19;100429.63;1740747;80;21096;-52
2022/03/02 00:39:34;;;;;;;14.37;8.23;;;;;;;0.88;78.15;100422.11;1739227;81;23284;-53
2022/03/02 00:42:00;;;;;;;15.40;8.60;;;;;;;0.85;78.14;100419.92;1736627;81;21100;-55
2022/03/02 00:44:27;;;;;;;15.97;8.77;;;;;;;0.81;78.22;100415.04;1742388;81;21075;-53
2022/03/02 00:46:54;;;;;;;18.57;9.23;;;;;;;0.80;78.25;100409.73;1740691;81;21396;-54
2022/03/02 00:49:24;;;;;;;14.43;8.43;;;;;;;0.77;78.29;100407.09;1741205;81;21547;-53
2022/03/02 00:51:49;;;;;;;17.80;9.63;;;;;;;0.75;78.36;100411.06;1740719;81;21841;-54
2022/03/02 00:54:16;;;;;;;17.47;8.90;;;;;;;0.76;78.50;100404.88;1742645;81;21690;-54
2022/03/02 00:56:42;;;;;;;18.77;10.97;;;;;;;0.79;78.48;100401.33;1742251;80;21035;-56
2022/03/02 00:59:08;;;;;;;23.17;10.27;;;;;;;0.79;78.43;100398.24;1742447;80;21065;-55
2022/03/02 01:01:35;;;;;;;21.83;10.13;;;;;;;0.79;78.53;100397.36;1740297;81;21373;-55
2022/03/02 01:04:01;;;;;;;26.13;12.10;;;;;;;0.77;78.55;100399.14;1741635;81;21559;-52
2022/03/02 01:06:27;;;;;;;21.80;10.93;;;;;;;0.73;78.66;100392.50;1730191;81;21570;-53
2022/03/02 01:08:54;;;;;;;24.33;11.47;;;;;;;0.70;78.77;100395.58;1760190;79;21058;-53
2022/03/02 01:11:22;;;;;;;20.57;10.13;;;;;;;0.68;78.89;100390.74;1760691;80;21490;-52
2022/03/02 01:13:49;;;;;;;21.00;10.70;;;;;;;0.69;78.98;100392.04;1760692;79;21035;-54
2022/03/02 01:16:15;;;;;;;19.07;10.30;;;;;;;0.71;78.95;100383.66;1761071;80;21120;-53
2022/03/02 01:18:41;;;;;;;23.97;11.07;;;;;;;0.70;79.05;100375.70;1760931;79;21023;-53
2022/03/02 01:21:08;;;;;;;17.70;9.13;;;;;;;0.72;79.05;100381.45;1759656;79;21295;-52
2022/03/02 01:23:34;;;;;;;19.57;9.27;;;;;;;0.74;79.12;100374.84;1762689;79;20921;-54
2022/03/02 01:26:01;;;;;;;20.73;10.00;;;;;;;0.77;79.17;100375.30;1737355;81;21091;-55
2022/03/02 01:28:27;;;;;;;19.10;10.40;;;;;;;0.79;79.22;100369.53;1760826;79;21854;-55
2022/03/02 01:30:53;;;;;;;20.63;10.90;;;;;;;0.80;79.19;100373.95;1729178;81;21090;-54
2022/03/02 01:33:20;;;;;;;22.40;9.70;;;;;;;0.79;79.14;100364.23;1761634;79;22598;-54
2022/03/02 01:35:46;;;;;;;17.90;8.13;;;;;;;0.80;79.21;100358.05;1762688;79;21372;-52
2022/03/02 01:38:13;;;;;;;17.77;9.27;;;;;;;0.81;79.23;100357.17;1762809;79;21518;-52
2022/03/02 01:40:39;;;;;;;22.27;10.27;;;;;;;0.80;79.24;100361.59;1760261;79;21641;-53
2022/03/02 01:43:06;;;;;;;19.70;9.80;;;;;;;0.81;79.31;100361.15;1758758;79;21095;-55
2022/03/02 01:45:32;;;;;;;18.20;10.00;;;;;;;0.78;79.33;100353.19;1756750;80;21036;-54
2022/03/02 01:48:02;;;;;;;19.13;9.33;;;;;;;0.75;79.43;100348.34;1757049;80;21064;-54
2022/03/02 01:50:29;;;;;;;18.63;9.80;;;;;;;0.74;79.58;100348.34;1755228;80;21460;-53
2022/03/02 01:52:55;;;;;;;15.67;8.90;;;;;;;0.75;79.71;100354.09;1756544;80;21860;-54
2022/03/02 01:55:22;;;;;;;21.47;10.00;;;;;;;0.74;79.88;100349.67;1756128;80;21597;-55
2022/03/02 01:57:48;;;;;;;19.67;9.80;;;;;;;0.73;79.93;100342.16;1757264;80;21080;-56
2022/03/02 02:00:18;;;;;;;25.03;11.37;;;;;;;0.72;80.03;100343.48;1699450;81;21061;-55
2022/03/02 02:02:45;;;;;;;22.03;10.87;;;;;;;0.72;80.13;100350.98;1757495;80;21060;-55
2022/03/02 02:05:11;;;;;;;22.33;9.17;;;;;;;0.71;80.30;100345.23;1760904;80;21130;-53
2022/03/02 02:07:38;;;;;;;19.73;9.93;;;;;;;0.72;80.59;100344.36;1720518;81;21111;-53
2022/03/02 02:10:06;;;;;;;20.43;8.97;;;;;;;0.70;80.71;100342.14;1756744;80;21052;-54
2022/03/02 02:12:33;;;;;;;22.77;10.43;;;;;;;0.69;80.77;100340.38;1755970;80;21075;-55
2022/03/02 02:14:59;;;;;;;23.87;10.83;;;;;;;0.71;81.02;100339.05;1724270;81;21710;-53
2022/03/02 02:17:27;;;;;;;28.97;12.17;;;;;;;0.73;81.04;100332.00;1722910;81;21514;-53
2022/03/02 02:19:53;;;;;;;23.90;10.97;;;;;;;0.71;81.14;100329.34;1758657;80;20917;-53
2022/03/02 02:22:19;;;;;;;22.50;9.80;;;;;;;0.72;81.21;100334.20;1758496;80;20992;-54
2022/03/02 02:24:46;;;;;;;24.53;9.63;;;;;;;0.70;81.33;100339.49;1759269;80;21216;-54
2022/03/02 02:27:13;;;;;;;20.90;9.33;;;;;;;0.69;81.41;100336.39;1754692;80;21715;-53
2022/03/02 02:29:39;;;;;;;20.33;10.70;;;;;;;0.69;81.53;100335.08;1757607;79;21521;-53
2022/03/02 02:32:06;;;;;;;24.03;10.67;;;;;;;0.70;81.63;100336.84;1756860;80;21541;-53
2022/03/02 02:34:32;;;;;;;21.70;11.70;;;;;;;0.69;81.77;100339.48;1757530;79;21092;-55
2022/03/02 02:37:00;;;;;;;21.37;10.47;;;;;;;0.62;81.86;100329.33;1724328;83;21064;-53
2022/03/02 02:39:27;;;;;;;23.63;9.33;;;;;;;0.64;81.97;100327.58;1755133;80;21059;-56
2022/03/02 02:41:54;;;;;;;23.23;11.33;;;;;;;0.65;82.06;100321.40;1760136;80;21119;-54
2022/03/02 02:44:20;;;;;;;23.80;11.10;;;;;;;0.70;82.12;100318.30;1758716;79;21109;-55
2022/03/02 02:46:46;;;;;;;22.00;10.70;;;;;;;0.71;82.08;100318.74;1757953;80;21056;-55
2022/03/02 02:49:13;;;;;;;27.13;11.60;;;;;;;0.71;82.05;100317.42;1754847;80;21530;-55
2022/03/02 02:51:39;;;;;;;22.93;11.30;;;;;;;0.71;82.20;100313.88;1757094;80;21019;-55
2022/03/02 02:54:05;;;;;;;27.27;12.53;;;;;;;0.67;82.14;100309.48;1756277;80;21110;-55
2022/03/02 02:56:32;;;;;;;24.47;11.50;;;;;;;0.65;82.24;100297.55;1757098;80;21365;-55
2022/03/02 02:58:58;;;;;;;25.13;12.13;;;;;;;0.68;82.33;100298.00;1756590;80;21013;-55
2022/03/02 03:01:24;;;;;;;22.57;11.70;;;;;;;0.70;82.30;100294.45;1756618;80;22207;-55
2022/03/02 03:03:51;;;;;;;21.77;11.30;;;;;;;0.73;82.41;100289.16;1757999;80;21044;-55
2022/03/02 03:06:17;;;;;;;22.90;11.07;;;;;;;0.79;82.38;100288.70;1757073;80;21089;-55
2022/03/02 03:08:43;;;;;;;30.03;12.43;;;;;;;0.81;82.31;100285.63;1757425;80;21067;-55
2022/03/02 03:11:10;;;;;;;26.33;12.50;;;;;;;0.83;82.27;100286.07;1756017;80;21091;-55
2022/03/02 03:13:36;;;;;;;24.60;10.97;;;;;;;0.84;82.23;100289.16;1755956;80;21541;-55
2022/03/02 03:16:02;;;;;;;25.93;10.97;;;;;;;0.84;82.14;100277.68;1755917;80;21063;-54
2022/03/02 03:18:30;;;;;;;27.47;11.83;;;;;;;0.85;82.17;100286.93;1757362;80;21056;-55
2022/03/02 03:20:57;;;;;;;22.47;10.93;;;;;;;0.87;82.19;100289.58;1757021;80;21107;-55
2022/03/02 03:23:23;;;;;;;19.13;10.37;;;;;;;0.90;82.19;100286.94;1738349;81;21122;-55
2022/03/02 03:25:49;;;;;;;22.13;11.93;;;;;;;0.90;82.12;100286.94;1746905;80;21055;-55
2022/03/02 03:28:15;;;;;;;30.23;12.17;;;;;;;0.92;82.15;100285.19;1746099;80;21105;-55
2022/03/02 03:30:42;;;;;;;27.43;12.53;;;;;;;0.94;82.14;100282.06;1746676;80;21110;-55
2022/03/02 03:33:08;;;;;;;28.67;11.20;;;;;;;0.93;81.97;100278.56;1745617;80;21036;-54
2022/03/02 03:35:35;;;;;;;23.57;10.20;;;;;;;0.95;81.96;100278.53;1745754;80;21077;-55
2022/03/02 03:38:02;;;;;;;24.13;11.23;;;;;;;0.96;81.82;100280.30;1746194;80;21095;-55
2022/03/02 03:40:28;;;;;;;26.00;10.10;;;;;;;0.90;81.78;100272.36;1746507;80;21066;-54
2022/03/02 03:42:55;;;;;;;26.43;11.97;;;;;;;0.87;81.87;100269.27;1745452;80;21151;-54
2022/03/02 03:45:21;;;;;;;18.37;10.37;;;;;;;0.86;81.93;100266.61;1735545;81;21179;-54
2022/03/02 03:47:48;;;;;;;21.40;11.10;;;;;;;0.85;82.01;100264.88;1735077;81;21929;-54
2022/03/02 03:50:15;;;;;;;23.37;12.43;;;;;;;0.84;81.94;100265.75;1736176;81;20965;-54
2022/03/02 03:52:41;;;;;;;21.40;11.90;;;;;;;0.83;81.91;100252.94;1734966;81;21051;-55
2022/03/02 03:55:09;;;;;;;23.47;11.63;;;;;;;0.84;82.04;100256.04;1736567;81;21140;-54
2022/03/02 03:57:36;;;;;;;24.63;12.27;;;;;;;0.89;82.07;100246.30;1740925;81;20900;-54
2022/03/02 04:00:06;;;;;;;26.00;12.03;;;;;;;0.93;82.01;100244.54;1738334;81;21457;-54
2022/03/02 04:02:33;;;;;;;29.03;12.77;;;;;;;0.94;81.98;100235.67;1735808;81;21121;-54
2022/03/02 04:04:59;;;;;;;29.23;11.97;;;;;;;0.95;81.94;100234.35;1737108;81;21114;-54
2022/03/02 04:07:26;;;;;;;32.93;12.67;;;;;;;0.96;81.92;100234.80;1738794;81;21131;-57
2022/03/02 04:09:52;;;;;;;28.23;12.87;;;;;;;0.98;81.89;100233.47;1741147;81;21063;-56
2022/03/02 04:12:20;;;;;;;24.90;11.97;;;;;;;0.98;81.82;100230.38;1735583;81;21029;-55
2022/03/02 04:14:47;;;;;;;25.47;12.43;;;;;;;0.96;81.82;100225.52;1735381;81;21074;-55
2022/03/02 04:17:13;;;;;;;23.00;11.87;;;;;;;0.93;81.80;100220.25;1738143;81;21047;-55
2022/03/02 04:19:39;;;;;;;25.53;12.50;;;;;;;0.93;81.90;100228.20;1737888;81;21769;-53
2022/03/02 04:22:06;;;;;;;29.87;12.50;;;;;;;0.92;81.83;100222.89;1738738;81;21489;-56
2022/03/02 04:24:32;;;;;;;24.63;11.90;;;;;;;0.89;81.82;100225.09;1738350;81;21562;-56
2022/03/02 04:26:59;;;;;;;26.87;13.17;;;;;;;0.89;81.85;100224.22;1739561;81;21419;-54
2022/03/02 04:29:25;;;;;;;22.37;12.10;;;;;;;0.90;81.92;100217.59;1735048;81;21091;-54
2022/03/02 04:31:51;;;;;;;25.43;11.87;;;;;;;0.90;81.93;100213.61;1736478;81;21462;-56
2022/03/02 04:34:18;;;;;;;29.17;13.53;;;;;;;0.91;82.07;100211.41;1737965;81;21607;-56
2022/03/02 04:36:44;;;;;;;25.50;12.10;;;;;;;0.95;82.07;100212.27;1737765;81;21449;-56
2022/03/02 04:39:10;;;;;;;28.20;12.63;;;;;;;0.94;81.92;100210.05;1735298;81;21054;-54
2022/03/02 04:41:37;;;;;;;28.73;11.67;;;;;;;0.90;81.91;100208.75;1736833;81;21046;-56
2022/03/02 04:44:04;;;;;;;27.70;12.10;;;;;;;0.91;81.96;100206.55;1737200;81;21163;-56
2022/03/02 04:46:31;;;;;;;25.20;11.73;;;;;;;0.89;81.91;100193.30;1739241;81;21031;-56
2022/03/02 04:49:10;;;;;;;25.10;11.77;;;;;;;0.91;82.00;100202.58;1739458;81;20938;-54
2022/03/02 04:51:26;;;;;;;27.30;12.47;;;;;;;0.91;82.07;100187.55;1736773;81;21047;-54
2022/03/02 04:53:52;;;;;;;29.23;13.03;;;;;;;0.94;81.96;100199.89;1741325;81;21008;-54
2022/03/02 04:56:19;;;;;;;24.83;12.10;;;;;;;0.91;81.97;100198.59;1740176;80;21631;-56
2022/03/02 04:58:45;;;;;;;24.13;10.17;;;;;;;0.90;81.95;100205.66;1739153;80;21051;-54
2022/03/02 05:01:11;;;;;;;26.33;11.73;;;;;;;0.90;81.94;100210.08;1739175;80;21031;-53
2022/03/02 05:03:37;;;;;;;22.83;9.90;;;;;;;0.89;81.93;100205.22;1739448;81;21352;-54
2022/03/02 05:06:04;;;;;;;21.80;11.07;;;;;;;0.88;81.95;100209.19;1739611;81;21590;-56
2022/03/02 05:08:30;;;;;;;28.17;12.43;;;;;;;0.87;82.07;100213.61;1741254;80;21095;-56
2022/03/02 05:10:56;;;;;;;28.10;13.97;;;;;;;0.89;82.22;100213.17;1741097;81;21081;-54
2022/03/02 05:13:24;;;;;;;30.77;14.67;;;;;;;0.91;82.14;100213.17;1740274;81;21134;-54
2022/03/02 05:15:50;;;;;;;25.83;13.17;;;;;;;0.90;81.99;100218.92;1739401;81;21545;-57
2022/03/02 05:18:18;;;;;;;24.43;11.80;;;;;;;0.89;82.02;100214.94;1738260;81;21080;-54
2022/03/02 05:20:44;;;;;;;22.40;10.47;;;;;;;0.89;82.04;100212.28;1739170;81;21601;-55
2022/03/02 05:23:11;;;;;;;26.63;12.73;;;;;;;0.89;82.11;100217.14;1737626;81;21062;-54
2022/03/02 05:25:38;;;;;;;22.27;11.73;;;;;;;0.94;82.20;100211.82;1739862;80;21477;-54
2022/03/02 05:28:04;;;;;;;26.80;12.50;;;;;;;0.93;82.02;100214.06;1739178;80;21061;-55
2022/03/02 05:30:31;;;;;;;26.90;12.83;;;;;;;0.87;82.06;100216.26;1739005;81;20947;-55
2022/03/02 05:32:57;;;;;;;24.33;12.47;;;;;;;0.86;82.09;100215.81;1740314;80;21429;-54
2022/03/02 05:35:23;;;;;;;23.50;11.13;;;;;;;0.86;82.10;100217.14;1738495;81;21075;-55
2022/03/02 05:37:52;;;;;;;23.93;11.43;;;;;;;0.85;82.15;100212.72;1738740;81;21034;-55
2022/03/02 05:40:19;;;;;;;26.33;11.10;;;;;;;0.84;82.29;100210.98;1739325;81;22599;-54
2022/03/02 05:42:45;;;;;;;25.40;12.73;;;;;;;0.87;82.30;100206.98;1741417;81;20997;-55
2022/03/02 05:45:12;;;;;;;26.93;12.67;;;;;;;0.88;82.29;100206.54;1738279;81;20946;-54
2022/03/02 05:47:38;;;;;;;25.13;12.30;;;;;;;0.87;82.33;100200.80;1738813;80;20951;-54
2022/03/02 05:50:06;;;;;;;25.77;13.07;;;;;;;0.86;82.37;100203.89;1737620;81;20977;-55
2022/03/02 05:52:33;;;;;;;26.30;12.30;;;;;;;0.85;82.37;100203.44;1737697;81;21084;-54
2022/03/02 05:54:59;;;;;;;29.00;13.00;;;;;;;0.87;82.41;100200.36;1736663;81;21122;-54
2022/03/02 05:57:25;;;;;;;22.37;11.57;;;;;;;0.89;82.46;100200.36;1737588;81;21324;-55
2022/03/02 05:59:52;;;;;;;20.57;10.90;;;;;;;0.89;82.48;100204.34;1736826;80;21062;-54
2022/03/02 06:02:18;;;;;;;21.90;10.87;;;;;;;0.89;82.47;100201.24;1738389;81;21037;-54
2022/03/02 06:04:46;;;;;;;23.27;12.10;;;;;;;0.90;82.56;100208.31;1737919;80;21623;-55
2022/03/02 06:07:13;;;;;;;26.23;13.07;;;;;;;0.91;82.48;100201.25;1739132;80;21025;-55
2022/03/02 06:09:40;;;;;;;22.93;10.73;;;;;;;0.89;82.52;100192.41;1739575;80;21768;-56
2022/03/02 06:12:08;;;;;;;25.27;12.43;;;;;;;0.88;82.51;100195.50;1738777;80;20988;-56
2022/03/02 06:14:35;;;;;;;24.80;11.47;;;;;;;0.87;82.55;100198.14;1739849;80;21402;-55
2022/03/02 06:17:05;;;;;;;21.93;11.93;;;;;;;0.87;82.70;100192.84;1736608;81;20914;-55
2022/03/02 06:19:33;;;;;;;19.07;10.10;;;;;;;0.90;82.79;100196.83;1737443;81;20938;-55
2022/03/02 06:22:01;;;;;;;21.27;10.77;;;;;;;0.93;82.77;100191.53;1738775;80;21132;-56
2022/03/02 06:24:29;;;;;;;23.40;11.40;;;;;;;0.95;82.81;100188.41;1740355;80;21346;-56
2022/03/02 06:26:55;;;;;;;21.57;8.83;;;;;;;0.95;82.65;100187.97;1737619;80;20941;-56
2022/03/02 06:29:21;;;;;;;23.27;12.20;;;;;;;0.94;82.56;100188.84;1739140;81;21052;-56
2022/03/02 06:31:47;;;;;;;18.50;9.03;;;;;;;0.93;82.55;100190.20;1740481;81;20993;-56
2022/03/02 06:34:14;;;;;;;20.83;10.47;;;;;;;0.91;82.71;100192.85;1737651;81;22361;-56
2022/03/02 06:36:40;;;;;;;23.87;11.90;;;;;;;0.96;82.74;100184.88;1738628;80;20907;-56
2022/03/02 06:39:07;;;;;;;20.83;10.90;;;;;;;0.97;82.74;100183.55;1738481;80;21849;-56
2022/03/02 06:42:00;;;;;;;24.23;11.43;;;;;;;1.02;82.77;100186.20;1738246;81;20914;-56
2022/03/02 06:44:32;;;;;;;23.80;11.60;;;;;;;1.03;82.81;100178.66;1740188;81;20986;-56
2022/03/02 06:47:10;;;;;;;20.40;9.03;;;;;;;1.04;82.62;100181.31;1738214;81;21063;-56
2022/03/02 06:50:05;;;;;;;20.70;11.00;;;;;;;1.06;82.63;100184.86;1751749;80;20865;-56
2022/03/02 06:52:35;;;;;;;23.80;9.87;;;;;;;1.04;82.62;100173.80;1723823;81;20967;-56
2022/03/02 06:55:06;;;;;;;16.47;8.23;;;;;;;1.02;82.72;100171.16;1754313;80;20937;-56
2022/03/02 06:57:33;;;;;;;19.10;9.60;;;;;;;1.02;82.79;100169.83;1718502;83;21041;-56
2022/03/02 07:00:08;;;;;;;20.53;9.83;;;;;;;1.04;82.85;100166.73;1739423;80;21090;-54
2022/03/02 07:02:45;;;;;;;16.70;8.50;;;;;;;1.02;82.79;100165.84;1739156;81;21035;-54
2022/03/02 07:05:11;;;;;;;25.33;9.30;;;;;;;1.04;82.87;100161.88;1739655;80;21480;-54
2022/03/02 07:07:38;;;;;;;16.50;7.80;;;;;;;1.08;82.87;100159.67;1742473;80;20962;-57
2022/03/02 07:10:07;;;;;;;16.93;9.27;;;;;;;1.11;82.77;100151.68;1739005;81;20958;-54
2022/03/02 07:12:36;;;;;;;13.20;7.83;;;;;;;1.13;82.69;100149.91;1739753;81;20933;-55
2022/03/02 07:15:04;;;;;;;15.43;7.93;;;;;;;1.14;82.60;100159.19;1740121;80;20907;-55
2022/03/02 07:17:33;;;;;;;16.03;8.70;;;;;;;1.11;82.52;100145.94;1739368;81;20926;-55
2022/03/02 07:20:04;;;;;;;18.87;8.57;;;;;;;1.11;82.62;100150.36;1738789;81;20879;-55
2022/03/02 07:22:32;;;;;;;15.03;7.97;;;;;;;1.13;82.67;100149.47;1738655;80;20930;-55
2022/03/02 07:25:03;;;;;;;14.33;8.43;;;;;;;1.16;82.55;100151.23;1739246;80;21104;-55
2022/03/02 07:27:30;;;;;;;20.03;9.40;;;;;;;1.18;82.57;100146.82;1739753;80;21537;-55
2022/03/02 07:29:56;;;;;;;16.97;9.27;;;;;;;1.20;82.45;100142.37;1737896;81;21053;-55
2022/03/02 07:32:27;;;;;;;15.80;9.20;;;;;;;1.19;82.36;100149.03;1737030;81;21116;-55
2022/03/02 07:34:55;;;;;;;17.43;8.90;;;;;;;1.15;82.45;100145.49;1739383;81;21444;-55
2022/03/02 07:37:23;;;;;;;15.13;8.63;;;;;;;1.14;82.58;100145.94;1742987;80;21569;-56
2022/03/02 07:39:49;;;;;;;15.53;9.00;;;;;;;1.19;82.63;100142.41;1741928;80;21455;-56
2022/03/02 07:42:16;;;;;;;16.63;8.67;;;;;;;1.23;82.51;100138.83;1746553;80;21116;-55
2022/03/02 07:44:43;;;;;;;15.87;8.37;;;;;;;1.25;82.48;100138.39;1739259;81;21097;-57
2022/03/02 07:47:10;;;;;;;13.53;7.97;;;;;;;1.27;82.57;100133.97;1752150;80;21590;-58
2022/03/02 07:49:36;;;;;;;17.07;9.73;;;;;;;1.28;82.51;100137.91;1751125;80;21191;-56
2022/03/02 07:52:07;;;;;;;16.40;8.93;;;;;;;1.29;82.43;100142.77;1753444;80;22480;-56
2022/03/02 07:54:38;;;;;;;17.13;8.97;;;;;;;1.28;82.53;100143.21;1755631;80;21035;-56
2022/03/02 07:57:08;;;;;;;16.20;8.70;;;;;;;1.29;82.55;100137.47;1753881;80;21027;-58
2022/03/02 07:59:39;;;;;;;14.80;7.23;;;;;;;1.27;82.55;100133.97;1752620;80;21025;-59
2022/03/02 08:02:09;;;;;;;15.77;7.90;;;;;;;1.28;82.64;100136.58;1755547;80;21069;-59
2022/03/02 08:04:36;;;;;;;13.60;7.27;;;;;;;1.29;82.51;100133.05;1748703;80;21080;-58
2022/03/02 08:07:04;;;;;;;13.97;6.80;;;;;;;1.31;82.64;100126.41;1750461;80;21073;-60
2022/03/02 08:09:34;;;;;;;17.83;8.93;;;;;;;1.35;82.60;100121.10;1756548;80;22469;-57
2022/03/02 08:12:01;;;;;;;16.97;8.80;;;;;;;1.38;82.67;100120.18;1750130;80;21616;-57
2022/03/02 08:14:28;;;;;;;17.53;9.60;;;;;;;1.39;82.67;100119.30;1753473;80;22123;-57
2022/03/02 08:16:55;;;;;;;17.13;7.80;;;;;;;1.41;82.65;100112.22;1752442;80;22145;-56
2022/03/02 08:19:22;;;;;;;16.90;8.67;;;;;;;1.39;82.57;100121.51;1756184;80;21551;-59
2022/03/02 08:21:56;;;;;;;18.37;9.50;;;;;;;1.37;82.71;100115.31;1751773;80;21064;-57
2022/03/02 08:24:29;;;;;;;20.17;9.50;;;;;;;1.40;82.75;100114.43;1751376;80;21065;-57
2022/03/02 08:26:59;;;;;;;15.83;8.60;;;;;;;1.41;82.78;100115.75;1752803;80;21191;-57
2022/03/02 08:29:27;;;;;;;16.37;8.37;;;;;;;1.42;82.91;100112.22;1728961;80;21280;-58
2022/03/02 08:31:54;;;;;;;17.77;9.10;;;;;;;1.48;82.95;100109.96;1752911;80;21451;-58
2022/03/02 08:34:20;;;;;;;19.27;9.67;;;;;;;1.51;82.82;100103.33;1750590;80;22424;-58
2022/03/02 08:36:46;;;;;;;19.17;8.83;;;;;;;1.55;82.71;100101.52;1752692;80;21553;-56
2022/03/02 08:39:14;;;;;;;15.10;8.00;;;;;;;1.59;82.68;100101.95;1751138;80;21155;-59
2022/03/02 08:41:41;;;;;;;16.93;8.40;;;;;;;1.64;82.58;100104.98;1752062;80;21027;-58
2022/03/02 08:44:08;;;;;;;16.03;7.47;;;;;;;1.67;82.39;100098.80;1750288;80;21083;-58
2022/03/02 08:46:35;;;;;;;16.07;8.17;;;;;;;1.69;82.29;100086.41;1714811;80;21143;-59
2022/03/02 08:49:01;;;;;;;16.27;8.10;;;;;;;1.69;82.04;100084.63;1705758;82;21063;-57
2022/03/02 08:51:28;;;;;;;15.03;7.57;;;;;;;1.70;82.07;100082.86;1706651;82;21210;-58
2022/03/02 08:53:57;;;;;;;17.87;9.40;;;;;;;1.70;82.12;100078.41;1704240;82;21525;-58
2022/03/02 08:56:24;;;;;;;16.80;7.33;;;;;;;1.70;81.96;100074.42;1705600;82;21048;-57
2022/03/02 08:58:50;;;;;;;14.77;7.53;;;;;;;1.74;81.99;100079.27;1704853;82;21103;-56
2022/03/02 09:01:18;;;;;;;16.20;7.27;;;;;;;1.78;82.00;100075.28;1708375;82;21641;-56
2022/03/02 09:03:47;;;;;;;14.00;6.57;;;;;;;1.88;82.01;100068.09;1705261;82;21645;-56
2022/03/02 09:06:15;;;;;;;12.30;7.03;;;;;;;1.95;81.66;100063.64;1705899;82;20950;-57
2022/03/02 09:08:42;;;;;;;13.67;6.67;;;;;;;1.96;81.37;100059.61;1706093;82;21056;-57
2022/03/02 09:11:10;;;;;;;15.50;6.90;;;;;;;1.98;81.22;100064.47;1706143;82;20976;-58
2022/03/02 09:13:37;;;;;;;13.60;7.53;;;;;;;1.97;81.14;100061.37;1708621;82;21172;-57
2022/03/02 09:16:05;;;;;;;17.27;7.17;;;;;;;1.98;81.08;100060.48;1705068;82;21132;-56
2022/03/02 09:18:31;;;;;;;18.17;6.77;;;;;;;2.02;81.03;100063.56;1707468;82;22455;-57
2022/03/02 09:21:02;;;;;;;15.83;7.67;;;;;;;2.07;80.99;100050.23;1707562;82;21099;-57
2022/03/02 09:23:30;;;;;;;14.07;7.00;;;;;;;2.13;80.90;100050.17;1703194;82;21108;-57
2022/03/02 09:26:06;;;;;;;13.87;7.33;;;;;;;2.15;80.48;100047.94;1721313;81;20969;-58
2022/03/02 09:28:35;;;;;;;13.07;6.70;;;;;;;2.15;80.30;100052.37;1698417;82;21388;-57
2022/03/02 09:31:03;;;;;;;12.73;5.70;;;;;;;2.12;80.28;100049.77;1718501;81;20978;-57
2022/03/02 09:33:31;;;;;;;11.07;5.07;;;;;;;2.09;80.45;100048.01;1722871;81;20961;-57
2022/03/02 09:36:04;;;;;;;12.47;6.33;;;;;;;2.12;80.50;100046.66;1720318;81;20957;-58
2022/03/02 09:38:32;;;;;;;14.57;6.77;;;;;;;2.16;80.39;100049.70;1718894;81;20902;-57
2022/03/02 09:41:08;;;;;;;13.67;6.10;;;;;;;2.22;80.34;100050.96;1698060;82;21091;-57
2022/03/02 09:43:36;;;;;;;15.10;7.63;;;;;;;2.29;80.30;100041.18;1699124;82;20997;-57
2022/03/02 09:46:06;;;;;;;12.03;5.53;;;;;;;2.34;80.19;100039.79;1712008;81;21256;-57
2022/03/02 09:48:35;;;;;;;16.30;7.80;;;;;;;2.41;80.12;100028.20;1733489;80;21073;-57
2022/03/02 09:51:05;;;;;;;11.17;5.77;;;;;;;2.45;79.83;100032.59;1733444;81;21101;-58
2022/03/02 09:53:33;;;;;;;16.47;8.43;;;;;;;2.45;79.80;100028.61;1736710;80;22147;-57
2022/03/02 09:56:03;;;;;;;22.83;11.20;;;;;;;2.42;79.72;100024.65;1734860;81;22236;-57
2022/03/02 10:00:38;;;;;;;17.53;9.03;;;;;;;2.47;79.78;100018.82;1818598;77;26460;-56
2022/03/02 10:03:05;;;;;;;11.33;5.53;;;;;;;2.42;79.73;100014.02;1800515;78;20961;-56
2022/03/02 10:05:32;;;;;;;11.27;5.40;;;;;;;2.44;79.81;100009.58;1761185;80;21194;-55
2022/03/02 10:08:07;;;;;;;11.63;5.40;;;;;;;2.44;79.66;100007.80;1746488;80;21033;-55
2022/03/02 10:10:40;;;;;;;11.63;4.90;;;;;;;2.42;79.72;100008.70;1732676;81;21086;-55
2022/03/02 10:13:09;;;;;;;13.83;5.90;;;;;;;2.40;79.80;100001.19;1758547;79;20867;-55
2022/03/02 10:15:36;;;;;;;11.30;6.40;;;;;;;2.37;79.92;100000.80;1735905;80;21568;-57
2022/03/02 10:18:07;;;;;;;10.97;5.60;;;;;;;2.34;80.12;100001.27;1738128;81;22123;-55
2022/03/02 10:20:35;;;;;;;13.10;7.57;;;;;;;2.32;80.15;99998.63;1760794;80;20919;-55
2022/03/02 10:23:34;;;;;;;10.20;5.70;;;;;;;2.27;80.29;99990.73;1739752;80;20876;-55
2022/03/02 10:26:23;;;;;;;12.80;6.40;;;;;;;2.27;80.53;99984.53;1766144;80;21429;-55
2022/03/02 10:29:16;;;;;;;12.50;6.07;;;;;;;2.31;80.63;99984.03;1766053;79;21470;-55
2022/03/02 10:32:05;;;;;;;11.23;5.50;;;;;;;2.38;80.85;99977.33;1765347;79;20978;-55
2022/03/02 10:34:34;;;;;;;7.73;4.03;;;;;;;2.47;80.92;99969.66;1734632;80;21573;-56
2022/03/02 10:37:30;;;;;;;11.10;5.10;;;;;;;2.50;80.82;99969.20;1743489;80;20926;-55
2022/03/02 10:40:13;;;;;;;11.97;5.27;;;;;;;2.51;80.77;99967.42;1750152;81;20958;-57
2022/03/02 10:42:43;;;;;;;14.10;6.47;;;;;;;2.48;80.80;99960.35;1727264;81;21459;-57
2022/03/02 10:45:17;;;;;;;12.57;7.10;;;;;;;2.50;80.78;99963.87;1748847;81;21096;-56
2022/03/02 10:48:10;;;;;;;12.53;5.62;;;;;;;2.46;80.60;99954.66;1749224;81;20949;-55
2022/03/02 10:50:38;;;;;;;11.90;6.27;;;;;;;2.44;80.76;99955.11;1726427;81;21108;-57
2022/03/02 10:53:07;;;;;;;11.60;5.20;;;;;;;2.44;80.86;99941.38;1764900;80;21018;-58
2022/03/02 10:55:35;;;;;;;15.67;5.57;;;;;;;2.43;80.91;99944.05;1732285;81;21014;-57
2022/03/02 10:58:04;;;;;;;11.83;5.03;;;;;;;2.43;80.97;99942.72;1712211;82;21139;-56
2022/03/02 11:00:31;;;;;;;10.03;5.00;;;;;;;2.45;81.02;99935.17;1708995;81;21468;-56
2022/03/02 11:02:57;;;;;;;11.20;4.83;;;;;;;2.53;81.21;99931.08;1737758;81;21478;-55
2022/03/02 11:05:27;;;;;;;9.60;5.43;;;;;;;2.59;80.87;99925.23;1701850;83;21465;-55
2022/03/02 11:07:53;;;;;;;11.43;6.17;;;;;;;2.63;80.92;99929.62;1714268;82;21063;-55
2022/03/02 11:10:30;;;;;;;11.87;5.23;;;;;;;2.61;80.48;99922.11;1764801;78;21109;-55
2022/03/02 11:12:52;;;;;;;12.47;4.87;;;;;;;2.57;80.73;99916.39;1767931;80;22176;-57
2022/03/02 11:15:19;;;;;;;11.73;6.33;;;;;;;2.57;80.73;99919.05;1767938;80;21570;-56
2022/03/02 11:18:00;;;;;;;9.77;4.67;;;;;;;2.58;80.76;99918.60;1765505;80;21472;-56
2022/03/02 11:20:29;;;;;;;10.97;4.87;;;;;;;2.62;80.89;99911.03;1766281;80;20934;-58
2022/03/02 11:22:59;;;;;;;8.27;3.63;;;;;;;2.60;80.50;99908.84;1711057;82;21126;-57
2022/03/02 11:25:49;;;;;;;7.80;3.60;;;;;;;2.57;80.46;99907.54;1725509;81;21618;-56
2022/03/02 11:28:21;;;;;;;7.83;3.67;;;;;;;2.55;80.13;99902.72;1765209;80;21056;-57